Apiliotis — SYVY — position and weather

sailwx.info

Track history (hours):
 
Tides and Currents Weather Stations Pressure Air Temp Water Temp Dewpoint Dewpoint Depression Visibility Wind Speed Wind Dir Waves Ship Positions

Apiliotis

Last reported at 2015-Aug-01 16:30 UTC. Time now 2015-Aug-04 03:25 UTC.
Position N 37°48' E 026°37'.

Length 79 m; draft 4.5 m.

Type: Ship. MMSI: 240438000.

Date/timePositionNaut miles runAvg speedWind from/ knotsBaromVisibWave heightAir tempDewpointWater temp
2015-Aug-01 16:30N 37°48' E 026°37'1510.4
2015-Aug-01 15:03N 37°38' E 026°22'4 7.1
2015-Aug-01 14:32N 37°37' E 026°18'6 1.8
2015-Aug-01 11:15N 37°42' E 026°22'810.8
2015-Aug-01 10:33N 37°39' E 026°13'6 1.3
2015-Aug-01 05:33N 37°39' E 026°05'1010.4
2015-Aug-01 04:33N 37°37' E 025°52'1010.1
2015-Aug-01 03:33N 37°35' E 025°40'10 9.9
2015-Aug-01 02:33N 37°32' E 025°28'9 8.7
2015-Aug-01 01:34N 37°29' E 025°18'2 2.0
2015-Aug-01 00:32N 37°28' E 025°20'0 0.0
2015-Jul-31 23:32N 37°28' E 025°20'0 0.0
2015-Jul-31 22:33N 37°28' E 025°20'0 0.0
2015-Jul-31 21:33N 37°28' E 025°20'6 5.6
2015-Jul-31 20:31N 37°30' E 025°13'1111.0
2015-Jul-31 19:33N 37°36' E 025°01'48 4.7
2015-Jul-31 09:23N 38°20' E 024°37'79 1.8
2015-Jul-29 13:28N 39°38' E 024°23'1111.8
2015-Jul-29 12:34N 39°43' E 024°35'1111.4
2015-Jul-29 11:34N 39°48' E 024°49'133 2.8
2015-Jul-27 11:22N 37°49' E 026°05'910.8
2015-Jul-27 10:33N 37°41' E 026°10'5 0.8
2015-Jul-27 04:33N 37°41' E 026°16'1110.9
2015-Jul-27 03:33N 37°45' E 026°29'1211.2
2015-Jul-27 02:30N 37°50' E 026°43'1 0.1
2015-Jul-26 20:20N 37°50' E 026°43'911.0
2015-Jul-26 19:32N 37°46' E 026°33'1110.7
2015-Jul-26 18:33N 37°39' E 026°23'5 4.8
2015-Jul-26 17:33N 37°37' E 026°18'0 0.0
2015-Jul-26 16:32N 37°37' E 026°18'3 2.5
2015-Jul-26 15:28N 37°35' E 026°16'1011.3
2015-Jul-26 14:33N 37°30' E 026°04'1110.9
2015-Jul-26 13:34N 37°29' E 025°50'1211.8
2015-Jul-26 12:34N 37°30' E 025°35'1212.2
2015-Jul-26 11:33N 37°31' E 025°20'1212.1
2015-Jul-26 10:33N 37°31' E 025°05'1212.1
2015-Jul-26 09:33N 37°32' E 024°50'26 4.3
2015-Jul-26 03:29N 37°26' E 024°17'1011.0
2015-Jul-26 02:34N 37°31' E 024°06'1211.7
2015-Jul-26 01:33N 37°35' E 023°52'1010.5
2015-Jul-26 00:33N 37°42' E 023°42'1110.7
2015-Jul-25 23:34N 37°50' E 023°33'1111.3
2015-Jul-25 22:33N 37°52' E 023°19'1111.1
2015-Jul-25 21:33N 37°55' E 023°05'0 0.0
2015-Jul-25 20:27N 37°55' E 023°05'0 0.0
2015-Jul-25 19:33N 37°55' E 023°05'0 0.0
2015-Jul-25 18:32N 37°55' E 023°05'0 0.0
2015-Jul-25 17:33N 37°55' E 023°05'0 0.0
2015-Jul-25 16:28N 37°55' E 023°05'0 0.0
2015-Jul-25 15:27N 37°55' E 023°05'0 0.0
2015-Jul-25 14:32N 37°55' E 023°05'0 0.0
2015-Jul-25 13:33N 37°55' E 023°05'0 0.0
2015-Jul-25 12:33N 37°55' E 023°05'0 0.0
2015-Jul-25 11:33N 37°55' E 023°05'0 0.0
2015-Jul-25 10:33N 37°55' E 023°05'1 0.7
2015-Jul-25 09:33N 37°55' E 023°06'3 3.0
2015-Jul-25 08:33N 37°55' E 023°10'1110.7
2015-Jul-25 07:34N 37°57' E 023°23'8 8.0
2015-Jul-25 06:34N 38°02' E 023°32'1 0.6
2015-Jul-25 05:33N 38°02' E 023°32'0 0.0
2015-Jul-25 04:33N 38°02' E 023°32'0 0.0
2015-Jul-25 03:33N 38°02' E 023°32'0 0.0
2015-Jul-25 02:33N 38°02' E 023°32'0 0.0
2015-Jul-25 01:34N 38°02' E 023°32'0 0.0
2015-Jul-25 00:34N 38°02' E 023°32'0 0.0
2015-Jul-24 23:33N 38°02' E 023°32'0 0.0
2015-Jul-24 22:34N 38°02' E 023°32'0 0.0
2015-Jul-24 21:33N 38°02' E 023°32'0 0.0
2015-Jul-24 20:34N 38°02' E 023°32'0 0.0
2015-Jul-24 19:33N 38°02' E 023°32'0 0.0
2015-Jul-24 18:34N 38°02' E 023°32'0 0.0
2015-Jul-24 17:34N 38°02' E 023°32'0 0.0
2015-Jul-24 16:34N 38°02' E 023°32'0 0.0
2015-Jul-24 15:33N 38°02' E 023°32'0 0.0
2015-Jul-24 14:33N 38°02' E 023°32'0 0.0
2015-Jul-24 13:34N 38°02' E 023°32'0 0.0
2015-Jul-24 12:33N 38°02' E 023°32'0 0.0
2015-Jul-24 11:34N 38°02' E 023°32'0 0.1
2015-Jul-24 10:33N 38°02' E 023°32'0 0.1
2015-Jul-24 09:33N 38°02' E 023°32'0 0.0
2015-Jul-24 08:33N 38°02' E 023°32'0 0.0
2015-Jul-24 07:33N 38°02' E 023°32'0 0.0
2015-Jul-24 06:34N 38°02' E 023°32'0 0.0
2015-Jul-24 05:34N 38°02' E 023°32'7 6.5
2015-Jul-24 04:33N 37°59' E 023°25'8 7.6
2015-Jul-24 03:33N 37°51' E 023°27'1010.1
2015-Jul-24 02:33N 37°49' E 023°40'1111.2
2015-Jul-24 01:33N 37°40' E 023°48'1111.0
2015-Jul-24 00:33N 37°38' E 024°01'18 1.4
2015-Jul-23 11:28N 37°43' E 024°23'2 0.3
2015-Jul-23 04:32N 37°45' E 024°24'1110.3
2015-Jul-23 03:27N 37°54' E 024°33'2611.8
2015-Jul-23 01:15N 38°19' E 024°36'  
Track history (hours):
 
Tides and Currents Weather Stations Pressure Air Temp Water Temp Dewpoint Dewpoint Depression Visibility Wind Speed Wind Dir Waves Ship Positions

Apiliotis

Last reported at 2015-Aug-01 16:30 UTC. Time now 2015-Aug-04 03:25 UTC.
Position N 37°48' E 026°37'.

Length 79 m; draft 4.5 m.

Type: Ship. MMSI: 240438000.

Date/timePositionNaut miles runAvg speedWind from/ knotsBaromVisibWave heightAir tempDewpointWater temp
2015-Aug-01 16:30N 37°48' E 026°37'1510.4
2015-Aug-01 15:03N 37°38' E 026°22'4 7.1
2015-Aug-01 14:32N 37°37' E 026°18'6 1.8
2015-Aug-01 11:15N 37°42' E 026°22'810.8
2015-Aug-01 10:33N 37°39' E 026°13'6 1.3
2015-Aug-01 05:33N 37°39' E 026°05'1010.4
2015-Aug-01 04:33N 37°37' E 025°52'1010.1
2015-Aug-01 03:33N 37°35' E 025°40'10 9.9
2015-Aug-01 02:33N 37°32' E 025°28'9 8.7
2015-Aug-01 01:34N 37°29' E 025°18'2 2.0
2015-Aug-01 00:32N 37°28' E 025°20'0 0.0
2015-Jul-31 23:32N 37°28' E 025°20'0 0.0
2015-Jul-31 22:33N 37°28' E 025°20'0 0.0
2015-Jul-31 21:33N 37°28' E 025°20'6 5.6
2015-Jul-31 20:31N 37°30' E 025°13'1111.0
2015-Jul-31 19:33N 37°36' E 025°01'48 4.7
2015-Jul-31 09:23N 38°20' E 024°37'79 1.8
2015-Jul-29 13:28N 39°38' E 024°23'1111.8
2015-Jul-29 12:34N 39°43' E 024°35'1111.4
2015-Jul-29 11:34N 39°48' E 024°49'133 2.8
2015-Jul-27 11:22N 37°49' E 026°05'910.8
2015-Jul-27 10:33N 37°41' E 026°10'5 0.8
2015-Jul-27 04:33N 37°41' E 026°16'1110.9
2015-Jul-27 03:33N 37°45' E 026°29'1211.2
2015-Jul-27 02:30N 37°50' E 026°43'1 0.1
2015-Jul-26 20:20N 37°50' E 026°43'911.0
2015-Jul-26 19:32N 37°46' E 026°33'1110.7
2015-Jul-26 18:33N 37°39' E 026°23'5 4.8
2015-Jul-26 17:33N 37°37' E 026°18'0 0.0
2015-Jul-26 16:32N 37°37' E 026°18'3 2.5
2015-Jul-26 15:28N 37°35' E 026°16'1011.3
2015-Jul-26 14:33N 37°30' E 026°04'1110.9
2015-Jul-26 13:34N 37°29' E 025°50'1211.8
2015-Jul-26 12:34N 37°30' E 025°35'1212.2
2015-Jul-26 11:33N 37°31' E 025°20'1212.1
2015-Jul-26 10:33N 37°31' E 025°05'1212.1
2015-Jul-26 09:33N 37°32' E 024°50'26 4.3
2015-Jul-26 03:29N 37°26' E 024°17'1011.0
2015-Jul-26 02:34N 37°31' E 024°06'1211.7
2015-Jul-26 01:33N 37°35' E 023°52'1010.5
2015-Jul-26 00:33N 37°42' E 023°42'1110.7
2015-Jul-25 23:34N 37°50' E 023°33'1111.3
2015-Jul-25 22:33N 37°52' E 023°19'1111.1
2015-Jul-25 21:33N 37°55' E 023°05'0 0.0
2015-Jul-25 20:27N 37°55' E 023°05'0 0.0
2015-Jul-25 19:33N 37°55' E 023°05'0 0.0
2015-Jul-25 18:32N 37°55' E 023°05'0 0.0
2015-Jul-25 17:33N 37°55' E 023°05'0 0.0
2015-Jul-25 16:28N 37°55' E 023°05'0 0.0
2015-Jul-25 15:27N 37°55' E 023°05'0 0.0
2015-Jul-25 14:32N 37°55' E 023°05'0 0.0
2015-Jul-25 13:33N 37°55' E 023°05'0 0.0
2015-Jul-25 12:33N 37°55' E 023°05'0 0.0
2015-Jul-25 11:33N 37°55' E 023°05'0 0.0
2015-Jul-25 10:33N 37°55' E 023°05'1 0.7
2015-Jul-25 09:33N 37°55' E 023°06'3 3.0
2015-Jul-25 08:33N 37°55' E 023°10'1110.7
2015-Jul-25 07:34N 37°57' E 023°23'8 8.0
2015-Jul-25 06:34N 38°02' E 023°32'1 0.6
2015-Jul-25 05:33N 38°02' E 023°32'0 0.0
2015-Jul-25 04:33N 38°02' E 023°32'0 0.0
2015-Jul-25 03:33N 38°02' E 023°32'0 0.0
2015-Jul-25 02:33N 38°02' E 023°32'0 0.0
2015-Jul-25 01:34N 38°02' E 023°32'0 0.0
2015-Jul-25 00:34N 38°02' E 023°32'0 0.0
2015-Jul-24 23:33N 38°02' E 023°32'0 0.0
2015-Jul-24 22:34N 38°02' E 023°32'0 0.0
2015-Jul-24 21:33N 38°02' E 023°32'0 0.0
2015-Jul-24 20:34N 38°02' E 023°32'0 0.0
2015-Jul-24 19:33N 38°02' E 023°32'0 0.0
2015-Jul-24 18:34N 38°02' E 023°32'0 0.0
2015-Jul-24 17:34N 38°02' E 023°32'0 0.0
2015-Jul-24 16:34N 38°02' E 023°32'0 0.0
2015-Jul-24 15:33N 38°02' E 023°32'0 0.0
2015-Jul-24 14:33N 38°02' E 023°32'0 0.0
2015-Jul-24 13:34N 38°02' E 023°32'0 0.0
2015-Jul-24 12:33N 38°02' E 023°32'0 0.0
2015-Jul-24 11:34N 38°02' E 023°32'0 0.1
2015-Jul-24 10:33N 38°02' E 023°32'0 0.1
2015-Jul-24 09:33N 38°02' E 023°32'0 0.0
2015-Jul-24 08:33N 38°02' E 023°32'0 0.0
2015-Jul-24 07:33N 38°02' E 023°32'0 0.0
2015-Jul-24 06:34N 38°02' E 023°32'0 0.0
2015-Jul-24 05:34N 38°02' E 023°32'7 6.5
2015-Jul-24 04:33N 37°59' E 023°25'8 7.6
2015-Jul-24 03:33N 37°51' E 023°27'1010.1
2015-Jul-24 02:33N 37°49' E 023°40'1111.2
2015-Jul-24 01:33N 37°40' E 023°48'1111.0
2015-Jul-24 00:33N 37°38' E 024°01'18 1.4
2015-Jul-23 11:28N 37°43' E 024°23'2 0.3
2015-Jul-23 04:32N 37°45' E 024°24'1110.3
2015-Jul-23 03:27N 37°54' E 024°33'2611.8
2015-Jul-23 01:15N 38°19' E 024°36'  

Dump ship's entire track history